Time;durP1;ratioP1;P1;durP2;ratioP2;P2;SDS_P1;SDS_P2;PMS_P1;PMS_P2;Temp;Humidity;BMP_temperature;BMP_pressure;BME280_temperature;BME280_humidity;BME280_pressure;Samples;Min_cycle;Max_cycle;Signal;HPM_P1;HPM_P2
2023/08/06 00:01:03;;;;;;;16.60;8.18;;;;;;;;;;5013451;28;20068;-91
2023/08/06 00:03:29;;;;;;;29.38;8.88;;;;;;;;;;4998852;28;20594;-91
2023/08/06 00:05:55;;;;;;;19.52;8.30;;;;;;;;;;4998800;28;20061;-91
2023/08/06 00:08:21;;;;;;;22.77;8.18;;;;;;;;;;4997801;28;20099;-91
2023/08/06 00:10:50;;;;;;;18.10;8.68;;;;;;;;;;5001599;28;20037;-89
2023/08/06 00:13:16;;;;;;;16.77;8.25;;;;;;;;;;4996785;28;20030;-90
2023/08/06 00:15:42;;;;;;;19.08;8.23;;;;;;;;;;4995178;28;20025;-90
2023/08/06 00:18:08;;;;;;;15.30;8.40;;;;;;;;;;4996956;28;20071;-90
2023/08/06 00:20:34;;;;;;;21.10;9.32;;;;;;;;;;5001752;28;20071;-89
2023/08/06 00:23:01;;;;;;;21.38;8.80;;;;;;;;;;5013916;28;20034;-90
2023/08/06 00:25:27;;;;;;;18.92;8.25;;;;;;;;;;4992392;28;20053;-91
2023/08/06 00:27:54;;;;;;;29.60;8.15;;;;;;;;;;4988310;28;20036;-91
2023/08/06 00:30:20;;;;;;;20.17;8.25;;;;;;;;;;4987089;28;20355;-90
2023/08/06 00:32:47;;;;;;;18.95;8.68;;;;;;;;;;4987327;28;20034;-91
2023/08/06 00:35:13;;;;;;;17.40;8.18;;;;;;;;;;5008410;28;20132;-90
2023/08/06 00:37:39;;;;;;;24.15;8.95;;;;;;;;;;4999872;28;20053;-90
2023/08/06 00:40:06;;;;;;;24.20;8.93;;;;;;;;;;4986471;28;20078;-89
2023/08/06 00:42:32;;;;;;;15.93;7.85;;;;;;;;;;4993547;28;20044;-91
2023/08/06 00:45:00;;;;;;;21.67;9.38;;;;;;;;;;4990626;28;20029;-90
2023/08/06 00:47:26;;;;;;;18.85;8.15;;;;;;;;;;4994580;28;20478;-90
2023/08/06 00:49:52;;;;;;;23.67;9.10;;;;;;;;;;4992048;28;20465;-90
2023/08/06 00:52:18;;;;;;;17.85;8.65;;;;;;;;;;5006544;28;20125;-89
2023/08/06 00:54:44;;;;;;;17.38;7.72;;;;;;;;;;4986897;28;20041;-90
2023/08/06 00:57:12;;;;;;;22.52;9.25;;;;;;;;;;5011390;28;20022;-89
2023/08/06 00:59:58;;;;;;;20.88;9.02;;;;;;;;;;5011617;28;20038;-90
2023/08/06 01:02:24;;;;;;;18.30;8.82;;;;;;;;;;5002084;28;20032;-90
2023/08/06 01:04:51;;;;;;;19.23;9.00;;;;;;;;;;4981391;28;20132;-90
2023/08/06 01:07:17;;;;;;;19.95;8.65;;;;;;;;;;4987907;28;20038;-90
2023/08/06 01:09:52;;;;;;;21.42;9.02;;;;;;;;;;5000101;28;20096;-90
2023/08/06 01:12:37;;;;;;;32.63;9.30;;;;;;;;;;5006839;28;20037;-89
2023/08/06 01:15:06;;;;;;;21.25;9.55;;;;;;;;;;5006292;28;20066;-91
2023/08/06 01:17:34;;;;;;;20.90;9.85;;;;;;;;;;5004785;28;20057;-90
2023/08/06 01:20:00;;;;;;;24.77;9.85;;;;;;;;;;5005543;28;20038;-90
2023/08/06 01:22:26;;;;;;;18.50;9.13;;;;;;;;;;4987197;28;20030;-90
2023/08/06 01:24:52;;;;;;;17.42;8.63;;;;;;;;;;4988018;28;20136;-91
2023/08/06 01:27:24;;;;;;;21.67;9.25;;;;;;;;;;4994041;28;20038;-90
2023/08/06 01:30:09;;;;;;;21.23;10.00;;;;;;;;;;4996425;28;20036;-91
2023/08/06 01:32:35;;;;;;;25.75;9.60;;;;;;;;;;5008664;28;20464;-90
2023/08/06 01:35:03;;;;;;;28.15;10.82;;;;;;;;;;4991412;28;20054;-90
2023/08/06 01:37:30;;;;;;;24.88;9.85;;;;;;;;;;4996368;28;20109;-91
2023/08/06 01:39:57;;;;;;;26.23;11.18;;;;;;;;;;5009385;28;20509;-90
2023/08/06 01:42:23;;;;;;;25.40;10.18;;;;;;;;;;4973120;28;20493;-91
2023/08/06 01:44:49;;;;;;;26.30;12.60;;;;;;;;;;4976921;28;20577;-91
2023/08/06 01:47:15;;;;;;;29.50;11.73;;;;;;;;;;4991426;28;20129;-91
2023/08/06 01:49:42;;;;;;;27.08;10.98;;;;;;;;;;4983115;28;20030;-91
2023/08/06 01:52:12;;;;;;;35.50;12.35;;;;;;;;;;4994631;28;20516;-90
2023/08/06 01:54:38;;;;;;;23.75;10.85;;;;;;;;;;4996345;28;20034;-91
2023/08/06 01:57:06;;;;;;;31.25;10.93;;;;;;;;;;4992532;28;20855;-91
2023/08/06 01:59:32;;;;;;;31.50;10.85;;;;;;;;;;4978605;28;20030;-91
2023/08/06 02:02:01;;;;;;;27.25;12.15;;;;;;;;;;4989034;28;20025;-91
2023/08/06 02:04:27;;;;;;;29.77;11.02;;;;;;;;;;4979253;28;20417;-91
2023/08/06 02:06:53;;;;;;;26.52;11.77;;;;;;;;;;4979442;28;20034;-91
2023/08/06 02:09:19;;;;;;;26.08;11.52;;;;;;;;;;4975137;28;20517;-90
2023/08/06 02:11:49;;;;;;;26.67;11.63;;;;;;;;;;4976349;28;20037;-90
2023/08/06 02:14:16;;;;;;;31.27;12.27;;;;;;;;;;4969669;28;20143;-90
2023/08/06 02:16:43;;;;;;;23.80;11.85;;;;;;;;;;4981464;28;20099;-91
2023/08/06 02:19:09;;;;;;;30.55;12.65;;;;;;;;;;4994871;28;20479;-91
2023/08/06 02:21:35;;;;;;;29.10;13.10;;;;;;;;;;4975339;28;20035;-90
2023/08/06 02:24:02;;;;;;;33.05;13.05;;;;;;;;;;4989701;28;20032;-90
2023/08/06 02:26:35;;;;;;;29.05;13.38;;;;;;;;;;4982239;28;20083;-91
2023/08/06 02:29:01;;;;;;;27.38;12.85;;;;;;;;;;4973735;28;20113;-90
2023/08/06 02:31:27;;;;;;;30.40;12.93;;;;;;;;;;4960326;28;20045;-90
2023/08/06 02:33:53;;;;;;;29.63;12.65;;;;;;;;;;4975470;28;20030;-92
2023/08/06 02:36:20;;;;;;;25.92;13.13;;;;;;;;;;4963686;28;20050;-92
2023/08/06 02:38:46;;;;;;;34.83;13.68;;;;;;;;;;4970830;28;20090;-92
2023/08/06 02:41:12;;;;;;;27.98;13.77;;;;;;;;;;4969526;28;20069;-92
2023/08/06 02:43:38;;;;;;;27.88;13.40;;;;;;;;;;4963817;28;20034;-91
2023/08/06 02:46:04;;;;;;;33.47;12.85;;;;;;;;;;4957308;28;20039;-92
2023/08/06 02:48:30;;;;;;;31.55;14.25;;;;;;;;;;4973838;28;20332;-92
2023/08/06 02:51:00;;;;;;;30.55;13.13;;;;;;;;;;4961371;28;20057;-92
2023/08/06 02:53:26;;;;;;;29.05;12.93;;;;;;;;;;4971077;28;20034;-93
2023/08/06 02:55:52;;;;;;;25.52;12.65;;;;;;;;;;4956831;28;20041;-92
2023/08/06 02:58:22;;;;;;;26.33;12.05;;;;;;;;;;4984164;28;20534;-93
2023/08/06 03:01:08;;;;;;;29.88;13.18;;;;;;;;;;4972765;28;20042;-92
2023/08/06 03:03:35;;;;;;;32.13;12.82;;;;;;;;;;4979429;28;20026;-92
2023/08/06 03:06:01;;;;;;;25.98;12.73;;;;;;;;;;4963354;28;20170;-93
2023/08/06 03:08:29;;;;;;;25.13;12.40;;;;;;;;;;4954139;28;20784;-92
2023/08/06 03:10:55;;;;;;;25.17;11.75;;;;;;;;;;4973598;28;20034;-92
2023/08/06 03:13:21;;;;;;;36.30;13.65;;;;;;;;;;4971032;28;20038;-92
2023/08/06 03:16:00;;;;;;;38.67;13.25;;;;;;;;;;4973410;28;20128;-92
2023/08/06 03:18:26;;;;;;;24.90;12.45;;;;;;;;;;4984092;28;20035;-93
2023/08/06 03:20:53;;;;;;;29.35;13.02;;;;;;;;;;4970887;28;20034;-92
2023/08/06 03:23:23;;;;;;;31.63;13.77;;;;;;;;;;4987592;28;20026;-92
2023/08/06 03:25:56;;;;;;;34.92;12.95;;;;;;;;;;4956890;28;20074;-92
2023/08/06 03:28:22;;;;;;;33.70;12.63;;;;;;;;;;4953786;28;20034;-92
2023/08/06 03:30:48;;;;;;;24.80;12.00;;;;;;;;;;4970103;28;20031;-92
2023/08/06 03:33:18;;;;;;;30.05;13.45;;;;;;;;;;4971887;28;20124;-92
2023/08/06 03:35:44;;;;;;;29.50;13.00;;;;;;;;;;4957435;28;20034;-93
2023/08/06 03:38:13;;;;;;;27.42;13.57;;;;;;;;;;4955945;28;20047;-93
2023/08/06 03:40:43;;;;;;;27.77;12.82;;;;;;;;;;4959341;28;20030;-92
2023/08/06 03:43:09;;;;;;;26.60;12.52;;;;;;;;;;4969148;28;20613;-92
2023/08/06 03:45:35;;;;;;;25.27;12.00;;;;;;;;;;4977848;28;20030;-92
2023/08/06 03:48:01;;;;;;;28.30;12.40;;;;;;;;;;4973018;28;20061;-92
2023/08/06 03:50:27;;;;;;;28.67;12.52;;;;;;;;;;4958456;28;20034;-92
2023/08/06 03:52:56;;;;;;;27.00;11.63;;;;;;;;;;4957229;28;20034;-92
2023/08/06 03:55:22;;;;;;;21.90;10.63;;;;;;;;;;4960887;28;20033;-91
2023/08/06 03:57:49;;;;;;;24.33;11.65;;;;;;;;;;4957657;28;20454;-92
2023/08/06 04:00:15;;;;;;;24.55;11.82;;;;;;;;;;4954407;28;20031;-92
2023/08/06 04:02:41;;;;;;;21.73;10.30;;;;;;;;;;4956389;28;20061;-93
2023/08/06 04:05:07;;;;;;;18.13;10.65;;;;;;;;;;4974814;28;20057;-92
2023/08/06 04:07:36;;;;;;;29.77;10.75;;;;;;;;;;4987058;28;20070;-92
2023/08/06 04:10:04;;;;;;;29.70;11.13;;;;;;;;;;4957992;28;20053;-92
2023/08/06 04:12:30;;;;;;;24.55;11.63;;;;;;;;;;4976448;28;20046;-93
2023/08/06 04:14:58;;;;;;;21.58;11.23;;;;;;;;;;4956873;28;20030;-92
2023/08/06 04:17:24;;;;;;;23.45;10.90;;;;;;;;;;4976998;28;20038;-92
2023/08/06 04:19:51;;;;;;;25.45;11.18;;;;;;;;;;4973830;28;20074;-92
2023/08/06 04:22:18;;;;;;;20.05;10.23;;;;;;;;;;4971647;28;20160;-92
2023/08/06 04:24:44;;;;;;;24.45;10.45;;;;;;;;;;4958403;28;20390;-92
2023/08/06 04:27:18;;;;;;;22.02;10.63;;;;;;;;;;4986098;28;20141;-91
2023/08/06 04:29:44;;;;;;;26.67;9.85;;;;;;;;;;5012672;28;20034;-92
2023/08/06 04:32:10;;;;;;;19.85;10.25;;;;;;;;;;5009445;28;20513;-92
2023/08/06 04:34:37;;;;;;;23.20;10.35;;;;;;;;;;5006028;28;20539;-93
2023/08/06 04:37:04;;;;;;;21.10;10.18;;;;;;;;;;5012398;28;20128;-92
2023/08/06 04:39:30;;;;;;;22.77;10.68;;;;;;;;;;5013213;28;20469;-92
2023/08/06 04:41:57;;;;;;;19.70;9.73;;;;;;;;;;5012545;28;20021;-92
2023/08/06 04:44:23;;;;;;;27.83;10.68;;;;;;;;;;5022601;28;20036;-92
2023/08/06 04:46:57;;;;;;;23.17;10.48;;;;;;;;;;5012045;28;20937;-92
2023/08/06 04:49:23;;;;;;;22.55;10.20;;;;;;;;;;4998952;28;20083;-91
2023/08/06 04:51:50;;;;;;;25.02;10.52;;;;;;;;;;4995838;28;20408;-92
2023/08/06 04:54:16;;;;;;;20.13;9.93;;;;;;;;;;5011103;28;20073;-90
2023/08/06 04:56:42;;;;;;;19.05;9.35;;;;;;;;;;4994680;28;20501;-90
2023/08/06 04:59:08;;;;;;;17.42;9.13;;;;;;;;;;5015358;28;20389;-91
2023/08/06 05:01:35;;;;;;;17.58;9.23;;;;;;;;;;4998121;28;20538;-91
2023/08/06 05:04:01;;;;;;;20.42;9.40;;;;;;;;;;5012966;28;20136;-92
2023/08/06 05:06:27;;;;;;;23.73;9.48;;;;;;;;;;5021192;28;20044;-90
2023/08/06 05:08:53;;;;;;;18.13;9.27;;;;;;;;;;4995877;28;20071;-91
2023/08/06 05:11:20;;;;;;;17.85;9.02;;;;;;;;;;4996447;28;20433;-90
2023/08/06 05:13:46;;;;;;;21.35;9.77;;;;;;;;;;5004247;28;20113;-90
2023/08/06 05:16:12;;;;;;;22.58;10.43;;;;;;;;;;5011875;28;20038;-91
2023/08/06 05:18:41;;;;;;;22.20;9.85;;;;;;;;;;4994381;28;20128;-90
2023/08/06 05:21:11;;;;;;;23.75;9.45;;;;;;;;;;5025889;28;20508;-90
2023/08/06 05:23:39;;;;;;;20.45;9.90;;;;;;;;;;4999879;28;20029;-90
2023/08/06 05:26:05;;;;;;;21.00;10.25;;;;;;;;;;5011863;28;20587;-90
2023/08/06 05:28:31;;;;;;;18.77;10.60;;;;;;;;;;4992443;28;20049;-90
2023/08/06 05:30:57;;;;;;;22.55;9.60;;;;;;;;;;4991307;28;20034;-90
2023/08/06 05:33:23;;;;;;;23.65;9.93;;;;;;;;;;5020552;28;20036;-90
2023/08/06 05:35:50;;;;;;;20.08;9.10;;;;;;;;;;4990037;28;20675;-91
2023/08/06 05:38:17;;;;;;;17.67;10.02;;;;;;;;;;5001521;28;20435;-91
2023/08/06 05:40:43;;;;;;;23.27;10.07;;;;;;;;;;4996177;28;20037;-91
2023/08/06 05:43:09;;;;;;;23.10;11.23;;;;;;;;;;4987558;28;20843;-90
2023/08/06 05:45:35;;;;;;;44.03;12.95;;;;;;;;;;4993610;28;20088;-90
2023/08/06 05:48:01;;;;;;;32.45;12.80;;;;;;;;;;4986695;28;20445;-91
2023/08/06 05:50:27;;;;;;;30.90;13.60;;;;;;;;;;5002422;28;20502;-91
2023/08/06 05:52:53;;;;;;;21.90;10.45;;;;;;;;;;5007059;28;20083;-91
2023/08/06 05:55:21;;;;;;;23.52;11.07;;;;;;;;;;5012961;28;20044;-91
2023/08/06 05:57:47;;;;;;;20.85;11.27;;;;;;;;;;5005354;28;20232;-91
2023/08/06 06:00:13;;;;;;;18.65;10.43;;;;;;;;;;5006754;28;20524;-90
2023/08/06 06:02:43;;;;;;;23.88;10.00;;;;;;;;;;4989761;28;20561;-91
2023/08/06 06:05:09;;;;;;;18.27;8.88;;;;;;;;;;5009716;28;20030;-92
2023/08/06 06:07:35;;;;;;;20.45;8.68;;;;;;;;;;5004855;28;20030;-92
2023/08/06 06:10:02;;;;;;;15.55;8.13;;;;;;;;;;4992081;28;20607;-91
2023/08/06 06:12:28;;;;;;;15.35;8.82;;;;;;;;;;4993003;28;20129;-91
2023/08/06 06:14:54;;;;;;;15.27;7.18;;;;;;;;;;5005434;28;20037;-91
2023/08/06 06:17:20;;;;;;;11.80;7.22;;;;;;;;;;5020856;28;20575;-91
2023/08/06 06:19:53;;;;;;;12.82;7.32;;;;;;;;;;5009315;28;20387;-91
2023/08/06 06:22:20;;;;;;;10.07;6.85;;;;;;;;;;4993270;28;20409;-92
2023/08/06 06:24:46;;;;;;;13.02;7.45;;;;;;;;;;5017727;28;20422;-91
2023/08/06 06:27:18;;;;;;;12.43;6.53;;;;;;;;;;5020855;28;20099;-92
2023/08/06 06:29:45;;;;;;;12.45;6.30;;;;;;;;;;5011980;28;20480;-92
2023/08/06 06:32:11;;;;;;;16.60;7.18;;;;;;;;;;4997695;28;20138;-91
2023/08/06 06:34:37;;;;;;;11.63;6.50;;;;;;;;;;5014095;28;20036;-91
2023/08/06 06:37:03;;;;;;;12.15;6.13;;;;;;;;;;4996025;28;20507;-91
2023/08/06 06:39:30;;;;;;;15.95;6.20;;;;;;;;;;5010659;28;20053;-91
2023/08/06 06:41:56;;;;;;;10.25;5.82;;;;;;;;;;4993985;28;20420;-90
2023/08/06 06:44:22;;;;;;;10.80;5.72;;;;;;;;;;5015651;28;20040;-91
2023/08/06 06:46:48;;;;;;;12.57;6.07;;;;;;;;;;4995268;28;20025;-91
2023/08/06 06:49:14;;;;;;;11.63;5.18;;;;;;;;;;4993304;28;20061;-91
2023/08/06 06:51:40;;;;;;;9.93;5.72;;;;;;;;;;5002416;28;20071;-91
2023/08/06 06:54:06;;;;;;;6.95;5.07;;;;;;;;;;5020786;28;20041;-92
2023/08/06 06:56:32;;;;;;;9.52;5.57;;;;;;;;;;4993482;28;20044;-90
2023/08/06 06:58:58;;;;;;;13.02;5.03;;;;;;;;;;5010302;28;20041;-92
2023/08/06 07:01:25;;;;;;;8.23;5.15;;;;;;;;;;4994790;28;20032;-91
2023/08/06 07:03:51;;;;;;;8.13;5.32;;;;;;;;;;5011075;28;20026;-91
2023/08/06 07:06:18;;;;;;;7.82;4.70;;;;;;;;;;4999915;28;20238;-92
2023/08/06 07:08:44;;;;;;;9.45;5.63;;;;;;;;;;4991005;28;20080;-91
2023/08/06 07:11:10;;;;;;;6.13;4.35;;;;;;;;;;4996661;28;20045;-91
2023/08/06 07:13:50;;;;;;;7.28;4.47;;;;;;;;;;5001097;28;20454;-92
2023/08/06 07:16:19;;;;;;;6.88;4.18;;;;;;;;;;5030689;28;20034;-92
2023/08/06 07:18:45;;;;;;;4.93;3.72;;;;;;;;;;5001148;28;20805;-92
2023/08/06 07:21:12;;;;;;;11.80;4.28;;;;;;;;;;5016861;28;20038;-91
2023/08/06 07:23:40;;;;;;;6.15;4.28;;;;;;;;;;5017693;28;20564;-91
2023/08/06 07:26:06;;;;;;;8.88;4.65;;;;;;;;;;4996247;28;20404;-92
2023/08/06 07:28:42;;;;;;;8.13;4.78;;;;;;;;;;5000235;28;20046;-92
2023/08/06 07:31:11;;;;;;;;;;;;;;;;;;5011912;28;20038;-91
2023/08/06 07:33:37;;;;;;;7.03;4.32;;;;;;;;;;5015490;28;19963;-92
2023/08/06 07:36:11;;;;;;;5.18;4.30;;;;;;;;;;5007935;28;20038;-91
2023/08/06 07:38:38;;;;;;;5.70;4.18;;;;;;;;;;5024654;28;20041;-92
2023/08/06 07:41:04;;;;;;;5.75;4.07;;;;;;;;;;5011341;28;20026;-92
2023/08/06 07:43:31;;;;;;;7.75;4.20;;;;;;;;;;5010106;28;20541;-91
2023/08/06 07:46:00;;;;;;;8.60;4.72;;;;;;;;;;5001292;28;20032;-92
2023/08/06 07:48:27;;;;;;;9.32;4.20;;;;;;;;;;5029068;28;20033;-92
2023/08/06 07:50:54;;;;;;;6.80;4.18;;;;;;;;;;5020918;28;20034;-93
2023/08/06 07:53:21;;;;;;;5.53;4.05;;;;;;;;;;4995640;28;20034;-91
2023/08/06 07:55:54;;;;;;;6.07;3.92;;;;;;;;;;4998912;28;20037;-91
2023/08/06 07:58:21;;;;;;;6.15;4.25;;;;;;;;;;5012330;28;20623;-92
2023/08/06 08:00:50;;;;;;;6.90;4.20;;;;;;;;;;5012229;28;20022;-92
2023/08/06 08:03:17;;;;;;;8.55;4.18;;;;;;;;;;5028030;28;20025;-92
2023/08/06 08:05:46;;;;;;;8.13;3.83;;;;;;;;;;5012316;28;20022;-91
2023/08/06 08:08:14;;;;;;;6.03;4.15;;;;;;;;;;5027786;28;20068;-92
2023/08/06 08:10:47;;;;;;;9.38;4.32;;;;;;;;;;5013140;28;20034;-91
2023/08/06 08:13:13;;;;;;;8.27;3.95;;;;;;;;;;5010160;28;20545;-92
2023/08/06 08:18:32;;;;;;;9.10;3.63;;;;;;;;;;5009133;28;20402;-91
2023/08/06 08:20:59;;;;;;;6.90;4.22;;;;;;;;;;4997967;28;20092;-92
2023/08/06 08:23:25;;;;;;;5.20;3.28;;;;;;;;;;5007995;28;20034;-92
2023/08/06 08:26:01;;;;;;;;;;;;;;;;;;;;;
2023/08/06 08:28:28;;;;;;;3.38;2.83;;;;;;;;;;5020696;28;20037;-90
2023/08/06 08:30:54;;;;;;;4.25;3.20;;;;;;;;;;5014456;28;20540;-92
2023/08/06 08:33:23;;;;;;;4.82;3.63;;;;;;;;;;4995811;28;20021;-90
2023/08/06 08:35:49;;;;;;;4.35;3.30;;;;;;;;;;5013719;28;20500;-92
2023/08/06 08:38:15;;;;;;;4.95;3.58;;;;;;;;;;5024260;28;20546;-91
2023/08/06 08:40:51;;;;;;;4.43;3.58;;;;;;;;;;5006861;28;20488;-91
2023/08/06 08:43:19;;;;;;;4.95;3.60;;;;;;;;;;5027289;28;20079;-91
2023/08/06 08:45:49;;;;;;;3.88;3.10;;;;;;;;;;5015147;28;20017;-90
2023/08/06 08:48:16;;;;;;;4.03;2.75;;;;;;;;;;5022525;28;20053;-91
2023/08/06 08:50:44;;;;;;;5.68;3.50;;;;;;;;;;5016286;28;20029;-91
2023/08/06 08:53:11;;;;;;;4.68;3.00;;;;;;;;;;5013677;28;20045;-91
2023/08/06 08:55:38;;;;;;;3.85;3.30;;;;;;;;;;5026094;28;20060;-90
2023/08/06 08:58:05;;;;;;;5.10;3.47;;;;;;;;;;5026520;28;20130;-90
2023/08/06 09:00:33;;;;;;;4.35;3.40;;;;;;;;;;4999097;28;20114;-90
2023/08/06 09:02:59;;;;;;;4.25;3.00;;;;;;;;;;5015021;28;20037;-91
2023/08/06 09:05:30;;;;;;;3.70;2.85;;;;;;;;;;5027540;28;20453;-90
2023/08/06 09:08:02;;;;;;;4.97;3.30;;;;;;;;;;5015799;28;20030;-90
2023/08/06 09:10:32;;;;;;;5.00;2.95;;;;;;;;;;5013513;28;20055;-90
2023/08/06 09:13:30;;;;;;;7.10;2.65;;;;;;;;;;4998214;28;20072;-91
2023/08/06 09:15:52;;;;;;;5.40;2.45;;;;;;;;;;5033105;28;20427;-92
2023/08/06 09:18:29;;;;;;;4.93;2.67;;;;;;;;;;5023805;28;20619;-90
2023/08/06 09:20:55;;;;;;;2.92;2.38;;;;;;;;;;5030781;28;20048;-93
2023/08/06 09:23:21;;;;;;;4.78;2.30;;;;;;;;;;5017942;28;20026;-92
2023/08/06 09:25:50;;;;;;;4.15;2.22;;;;;;;;;;5015763;28;20033;-91
2023/08/06 09:28:20;;;;;;;7.47;2.72;;;;;;;;;;5000881;28;20202;-90
2023/08/06 09:30:48;;;;;;;6.68;2.38;;;;;;;;;;4965744;28;20038;-91
2023/08/06 09:33:18;;;;;;;5.40;1.90;;;;;;;;;;4987097;28;20034;-92
2023/08/06 09:35:46;;;;;;;6.75;1.73;;;;;;;;;;4991190;28;20046;-93
2023/08/06 09:38:12;;;;;;;3.67;2.40;;;;;;;;;;4989577;28;20113;-93
2023/08/06 09:40:39;;;;;;;4.95;2.20;;;;;;;;;;4987492;28;20022;-95
2023/08/06 09:43:05;;;;;;;3.20;1.88;;;;;;;;;;4986620;28;20098;-93
2023/08/06 09:45:36;;;;;;;4.05;2.10;;;;;;;;;;4979154;28;20475;-93
2023/08/06 09:48:37;;;;;;;6.32;4.18;;;;;;;;;;4961214;28;20037;-93
2023/08/06 09:51:04;;;;;;;3.67;2.20;;;;;;;;;;4988484;28;20553;-93
2023/08/06 09:53:30;;;;;;;7.15;2.00;;;;;;;;;;4991403;28;20038;-93
2023/08/06 09:55:57;;;;;;;2.35;2.03;;;;;;;;;;4978246;28;20113;-93
2023/08/06 09:58:24;;;;;;;3.40;2.10;;;;;;;;;;4957908;28;20057;-92
2023/08/06 10:00:50;;;;;;;3.85;1.98;;;;;;;;;;4958276;28;20073;-93
2023/08/06 10:03:17;;;;;;;2.67;2.05;;;;;;;;;;4970277;28;20070;-94
2023/08/06 10:05:51;;;;;;;3.42;2.17;;;;;;;;;;4989899;28;20113;-93
2023/08/06 10:08:20;;;;;;;2.83;2.25;;;;;;;;;;4970875;28;20038;-93
2023/08/06 10:10:49;;;;;;;5.38;1.88;;;;;;;;;;4959171;28;20538;-93
2023/08/06 10:16:08;;;;;;;3.13;1.60;;;;;;;;;;4974322;28;20046;-93
2023/08/06 10:18:37;;;;;;;2.13;1.80;;;;;;;;;;4991046;28;20597;-94
2023/08/06 10:21:03;;;;;;;2.30;1.52;;;;;;;;;;4986933;28;20037;-93
2023/08/06 10:23:38;;;;;;;8.48;1.95;;;;;;;;;;4962837;28;20038;-92
2023/08/06 10:26:04;;;;;;;1.80;1.65;;;;;;;;;;4988157;28;20042;-92
2023/08/06 10:28:38;;;;;;;2.53;1.90;;;;;;;;;;4965363;28;20093;-93
2023/08/06 10:31:04;;;;;;;2.63;2.15;;;;;;;;;;4975738;28;20045;-93
2023/08/06 10:33:44;;;;;;;2.97;1.85;;;;;;;;;;4975269;28;20526;-93
2023/08/06 10:36:10;;;;;;;3.70;1.90;;;;;;;;;;4961933;28;20042;-93
2023/08/06 10:38:44;;;;;;;3.10;2.25;;;;;;;;;;4962175;28;20049;-93
2023/08/06 10:41:15;;;;;;;2.72;1.88;;;;;;;;;;4978157;28;20035;-93
2023/08/06 10:43:57;;;;;;;1.83;1.73;;;;;;;;;;4988193;28;20026;-91
2023/08/06 10:46:24;;;;;;;3.28;2.10;;;;;;;;;;4968175;28;20031;-92
2023/08/06 10:48:50;;;;;;;3.72;1.85;;;;;;;;;;4983918;28;20038;-92
2023/08/06 10:51:17;;;;;;;2.85;2.55;;;;;;;;;;4979108;28;21382;-92
2023/08/06 10:53:50;;;;;;;3.90;1.80;;;;;;;;;;4959071;28;20164;-92
2023/08/06 10:56:21;;;;;;;2.03;1.80;;;;;;;;;;4978039;28;20058;-92
2023/08/06 10:58:47;;;;;;;2.35;1.92;;;;;;;;;;4981202;28;20022;-92
2023/08/06 11:01:17;;;;;;;2.08;1.70;;;;;;;;;;4985012;28;20091;-92
2023/08/06 11:03:49;;;;;;;9.98;1.70;;;;;;;;;;4992154;28;20031;-92
2023/08/06 11:06:24;;;;;;;2.75;1.75;;;;;;;;;;4988262;28;20046;-92
2023/08/06 11:08:50;;;;;;;;;;;;;;;;;;4981913;28;20102;-92
2023/08/06 11:11:16;;;;;;;;;;;;;;;;;;4983012;28;20506;-92
2023/08/06 11:13:42;;;;;;;;;;;;;;;;;;4984110;28;19947;-92
2023/08/06 11:16:08;;;;;;;;;;;;;;;;;;4996664;28;19913;-91
2023/08/06 11:18:35;;;;;;;2.35;1.48;;;;;;;;;;5000021;28;19918;-93
2023/08/06 11:21:04;;;;;;;3.78;1.65;;;;;;;;;;4962958;28;20030;-92
2023/08/06 11:26:22;;;;;;;5.65;1.55;;;;;;;;;;4954763;28;20058;-92
2023/08/06 11:29:05;;;;;;;2.80;1.95;;;;;;;;;;5008644;28;20038;-92
2023/08/06 11:31:32;;;;;;;2.78;1.80;;;;;;;;;;5001657;28;20121;-92
2023/08/06 11:33:58;;;;;;;5.30;2.25;;;;;;;;;;5018281;28;20041;-93
2023/08/06 11:36:31;;;;;;;3.03;1.77;;;;;;;;;;4998896;28;20112;-92
2023/08/06 11:38:57;;;;;;;5.63;2.50;;;;;;;;;;5014009;28;20080;-92
2023/08/06 11:41:26;;;;;;;2.65;2.03;;;;;;;;;;5006706;28;20081;-92
2023/08/06 11:44:02;;;;;;;2.45;1.85;;;;;;;;;;5022686;28;20057;-93
2023/08/06 11:46:28;;;;;;;3.30;1.80;;;;;;;;;;5012767;28;20070;-92
2023/08/06 11:48:55;;;;;;;4.25;1.85;;;;;;;;;;4995492;28;20428;-91
2023/08/06 11:51:28;;;;;;;3.80;2.13;;;;;;;;;;5021282;28;20045;-91
2023/08/06 11:54:11;;;;;;;1.98;1.70;;;;;;;;;;5001573;28;20505;-93
2023/08/06 11:56:38;;;;;;;2.50;1.90;;;;;;;;;;5012344;28;20175;-94
2023/08/06 11:59:05;;;;;;;2.25;1.80;;;;;;;;;;5013705;28;20034;-95
2023/08/06 12:01:32;;;;;;;3.30;1.70;;;;;;;;;;4998024;28;20081;-93
2023/08/06 12:04:01;;;;;;;2.80;1.85;;;;;;;;;;5015733;28;20033;-94
2023/08/06 12:06:37;;;;;;;2.97;1.90;;;;;;;;;;4998266;28;20030;-95
2023/08/06 12:09:08;;;;;;;3.13;2.22;;;;;;;;;;5001534;28;20030;-94
2023/08/06 12:11:34;;;;;;;4.13;1.70;;;;;;;;;;5004167;28;20063;-93
2023/08/06 12:14:00;;;;;;;4.78;2.10;;;;;;;;;;5011450;28;20029;-93
2023/08/06 12:16:26;;;;;;;2.03;1.77;;;;;;;;;;4994895;28;20034;-94
2023/08/06 12:18:53;;;;;;;2.40;1.90;;;;;;;;;;4992276;28;20072;-94
2023/08/06 12:21:19;;;;;;;2.65;1.65;;;;;;;;;;4991086;28;20034;-93
2023/08/06 12:23:47;;;;;;;4.10;1.50;;;;;;;;;;4995827;28;20449;-94
2023/08/06 12:26:13;;;;;;;3.80;1.80;;;;;;;;;;4995726;28;20508;-94
2023/08/06 12:28:47;;;;;;;3.00;1.90;;;;;;;;;;5003332;28;20124;-94
2023/08/06 12:31:13;;;;;;;3.03;2.10;;;;;;;;;;4993482;28;20030;-94
2023/08/06 12:33:42;;;;;;;2.28;1.90;;;;;;;;;;4988575;28;20034;-94
2023/08/06 12:36:09;;;;;;;2.58;1.90;;;;;;;;;;4986673;28;20038;-93
2023/08/06 12:38:35;;;;;;;2.10;1.90;;;;;;;;;;4992817;28;20041;-93
2023/08/06 12:41:02;;;;;;;2.65;1.55;;;;;;;;;;4994825;28;20034;-94
2023/08/06 12:43:28;;;;;;;3.03;1.92;;;;;;;;;;4992622;28;20054;-94
2023/08/06 12:45:54;;;;;;;2.83;1.92;;;;;;;;;;4994175;28;20034;-92
2023/08/06 12:48:20;;;;;;;2.17;1.90;;;;;;;;;;4994995;28;20049;-92
2023/08/06 12:50:50;;;;;;;3.45;3.15;;;;;;;;;;4994105;28;20066;-92
2023/08/06 12:53:17;;;;;;;1.85;1.50;;;;;;;;;;5008409;28;20096;-92
2023/08/06 12:55:43;;;;;;;1.92;1.73;;;;;;;;;;4988484;28;20034;-92
2023/08/06 12:58:09;;;;;;;1.58;1.48;;;;;;;;;;5017708;28;20036;-92
2023/08/06 13:00:38;;;;;;;2.47;1.92;;;;;;;;;;4994344;28;20287;-92
2023/08/06 13:03:13;;;;;;;3.10;1.80;;;;;;;;;;5007660;28;20034;-91
2023/08/06 13:05:39;;;;;;;;;;;;;;;;;;4995784;28;20030;-89
2023/08/06 13:08:05;;;;;;;1.58;1.48;;;;;;;;;;5010687;28;19909;-90
2023/08/06 13:10:31;;;;;;;2.58;1.63;;;;;;;;;;4989792;28;20137;-91
2023/08/06 13:12:58;;;;;;;5.40;1.70;;;;;;;;;;5006963;28;20030;-90
2023/08/06 13:15:27;;;;;;;1.88;1.45;;;;;;;;;;5014249;28;20068;-91
2023/08/06 13:17:53;;;;;;;4.55;1.70;;;;;;;;;;4995307;28;20102;-90
2023/08/06 13:20:20;;;;;;;1.70;1.60;;;;;;;;;;4995724;28;20118;-89
2023/08/06 13:22:50;;;;;;;5.60;1.83;;;;;;;;;;5007066;28;20048;-90
2023/08/06 13:25:16;;;;;;;4.95;1.60;;;;;;;;;;4991426;28;20030;-89
2023/08/06 13:27:45;;;;;;;2.40;1.92;;;;;;;;;;5006203;28;20030;-90
2023/08/06 13:30:18;;;;;;;5.07;1.88;;;;;;;;;;5010080;28;20050;-91
2023/08/06 13:32:45;;;;;;;2.40;1.70;;;;;;;;;;4995428;28;20018;-89
2023/08/06 13:35:11;;;;;;;1.60;1.50;;;;;;;;;;4985914;28;20038;-90
2023/08/06 13:37:37;;;;;;;2.10;1.50;;;;;;;;;;4987871;28;20054;-90
2023/08/06 13:40:03;;;;;;;2.00;1.80;;;;;;;;;;5004400;28;20029;-91
2023/08/06 13:42:32;;;;;;;2.80;1.65;;;;;;;;;;5013260;28;20029;-92
2023/08/06 13:45:02;;;;;;;1.90;1.40;;;;;;;;;;4994829;28;20102;-90
2023/08/06 13:47:29;;;;;;;4.40;1.33;;;;;;;;;;4994354;28;20030;-90
2023/08/06 13:49:55;;;;;;;2.10;1.48;;;;;;;;;;4994033;28;20521;-91
2023/08/06 13:52:22;;;;;;;3.22;1.67;;;;;;;;;;4981156;28;20029;-91
2023/08/06 13:54:48;;;;;;;2.72;1.65;;;;;;;;;;5007179;28;20043;-91
2023/08/06 13:57:17;;;;;;;2.45;1.90;;;;;;;;;;5008428;28;20034;-90
2023/08/06 13:59:50;;;;;;;3.40;1.45;;;;;;;;;;5008778;28;20033;-89
2023/08/06 14:02:16;;;;;;;3.78;1.77;;;;;;;;;;4987704;28;20117;-90
2023/08/06 14:04:42;;;;;;;4.43;1.70;;;;;;;;;;4992018;28;20038;-91
2023/08/06 14:07:11;;;;;;;1.92;1.63;;;;;;;;;;4986292;28;20037;-90
2023/08/06 14:09:42;;;;;;;2.20;1.60;;;;;;;;;;5004353;28;20032;-89
2023/08/06 14:12:08;;;;;;;2.42;1.58;;;;;;;;;;4989895;28;20036;-90
2023/08/06 14:14:41;;;;;;;1.60;1.40;;;;;;;;;;5008160;28;20508;-89
2023/08/06 14:17:07;;;;;;;1.90;1.80;;;;;;;;;;4994344;28;20056;-89
2023/08/06 14:19:33;;;;;;;2.30;1.58;;;;;;;;;;4990200;28;20054;-91
2023/08/06 14:22:14;;;;;;;2.95;1.90;;;;;;;;;;4991515;28;20123;-90
2023/08/06 14:24:41;;;;;;;3.17;1.67;;;;;;;;;;5003425;28;20040;-89
2023/08/06 14:27:07;;;;;;;2.00;1.80;;;;;;;;;;4993108;28;20046;-90
2023/08/06 14:29:50;;;;;;;2.00;1.60;;;;;;;;;;4990781;28;20139;-91
2023/08/06 14:32:17;;;;;;;2.65;1.88;;;;;;;;;;5004840;28;20025;-90
2023/08/06 14:34:44;;;;;;;1.67;1.42;;;;;;;;;;4989133;28;20044;-91
2023/08/06 14:37:11;;;;;;;1.40;1.30;;;;;;;;;;5006648;28;20091;-90
2023/08/06 14:39:37;;;;;;;1.92;1.58;;;;;;;;;;5005711;28;20563;-90
2023/08/06 14:42:04;;;;;;;2.47;1.63;;;;;;;;;;5006620;28;20076;-90
2023/08/06 14:44:30;;;;;;;2.83;1.60;;;;;;;;;;5007414;28;20491;-90
2023/08/06 14:46:57;;;;;;;4.32;2.10;;;;;;;;;;4989446;28;20045;-90
2023/08/06 14:49:23;;;;;;;3.50;1.45;;;;;;;;;;5003406;28;20030;-92